sensor_id;sensor_type;location;lat;lon;timestamp;P1;durP1;ratioP1;P2;durP2;ratioP2
11771;SDS011;12556;55.748;13.194;2022-11-23T00:01:49;47.53;;;27.00;;
11771;SDS011;12556;55.748;13.194;2022-11-23T00:04:16;55.80;;;27.50;;
11771;SDS011;12556;55.748;13.194;2022-11-23T00:06:43;48.87;;;26.60;;
11771;SDS011;12556;55.748;13.194;2022-11-23T00:09:10;51.87;;;27.43;;
11771;SDS011;12556;55.748;13.194;2022-11-23T00:11:37;51.87;;;26.57;;
11771;SDS011;12556;55.748;13.194;2022-11-23T00:14:04;49.93;;;26.30;;
11771;SDS011;12556;55.748;13.194;2022-11-23T00:16:31;52.43;;;26.53;;
11771;SDS011;12556;55.748;13.194;2022-11-23T00:18:59;47.90;;;25.83;;
11771;SDS011;12556;55.748;13.194;2022-11-23T00:21:30;45.83;;;27.33;;
11771;SDS011;12556;55.748;13.194;2022-11-23T00:23:58;52.87;;;27.63;;
11771;SDS011;12556;55.748;13.194;2022-11-23T00:26:24;49.07;;;26.83;;
11771;SDS011;12556;55.748;13.194;2022-11-23T00:28:51;47.63;;;26.83;;
11771;SDS011;12556;55.748;13.194;2022-11-23T00:31:19;49.33;;;26.33;;
11771;SDS011;12556;55.748;13.194;2022-11-23T00:33:52;51.87;;;27.87;;
11771;SDS011;12556;55.748;13.194;2022-11-23T00:36:22;46.97;;;26.17;;
11771;SDS011;12556;55.748;13.194;2022-11-23T00:38:50;48.97;;;26.70;;
11771;SDS011;12556;55.748;13.194;2022-11-23T00:41:19;51.30;;;28.10;;
11771;SDS011;12556;55.748;13.194;2022-11-23T00:43:47;52.33;;;26.87;;
11771;SDS011;12556;55.748;13.194;2022-11-23T00:46:15;46.97;;;26.87;;
11771;SDS011;12556;55.748;13.194;2022-11-23T00:48:44;46.27;;;26.37;;
11771;SDS011;12556;55.748;13.194;2022-11-23T00:51:13;45.70;;;25.97;;
11771;SDS011;12556;55.748;13.194;2022-11-23T00:53:43;48.53;;;25.77;;
11771;SDS011;12556;55.748;13.194;2022-11-23T00:56:11;43.10;;;24.93;;
11771;SDS011;12556;55.748;13.194;2022-11-23T00:58:38;48.80;;;25.70;;
11771;SDS011;12556;55.748;13.194;2022-11-23T01:01:06;42.60;;;23.60;;
11771;SDS011;12556;55.748;13.194;2022-11-23T01:03:35;44.43;;;24.63;;
11771;SDS011;12556;55.748;13.194;2022-11-23T01:06:04;45.60;;;24.63;;
11771;SDS011;12556;55.748;13.194;2022-11-23T01:08:32;44.63;;;26.20;;
11771;SDS011;12556;55.748;13.194;2022-11-23T01:11:02;54.63;;;27.17;;
11771;SDS011;12556;55.748;13.194;2022-11-23T01:13:30;51.13;;;25.47;;
11771;SDS011;12556;55.748;13.194;2022-11-23T01:15:57;45.97;;;26.87;;
11771;SDS011;12556;55.748;13.194;2022-11-23T01:18:24;51.60;;;26.90;;
11771;SDS011;12556;55.748;13.194;2022-11-23T01:20:51;46.27;;;27.03;;
11771;SDS011;12556;55.748;13.194;2022-11-23T01:23:19;47.53;;;26.33;;
11771;SDS011;12556;55.748;13.194;2022-11-23T01:25:46;45.67;;;27.93;;
11771;SDS011;12556;55.748;13.194;2022-11-23T01:28:15;46.97;;;26.03;;
11771;SDS011;12556;55.748;13.194;2022-11-23T01:30:42;43.57;;;24.07;;
11771;SDS011;12556;55.748;13.194;2022-11-23T01:33:09;48.53;;;26.83;;
11771;SDS011;12556;55.748;13.194;2022-11-23T01:35:36;43.50;;;24.57;;
11771;SDS011;12556;55.748;13.194;2022-11-23T01:38:04;50.87;;;26.13;;
11771;SDS011;12556;55.748;13.194;2022-11-23T01:40:38;44.77;;;24.73;;
11771;SDS011;12556;55.748;13.194;2022-11-23T01:43:09;47.07;;;26.03;;
11771;SDS011;12556;55.748;13.194;2022-11-23T01:45:42;48.27;;;25.77;;
11771;SDS011;12556;55.748;13.194;2022-11-23T01:48:12;42.23;;;23.70;;
11771;SDS011;12556;55.748;13.194;2022-11-23T01:50:43;47.97;;;24.03;;
11771;SDS011;12556;55.748;13.194;2022-11-23T01:53:12;42.10;;;23.97;;
11771;SDS011;12556;55.748;13.194;2022-11-23T01:55:40;43.83;;;24.63;;
11771;SDS011;12556;55.748;13.194;2022-11-23T01:58:08;43.70;;;24.33;;
11771;SDS011;12556;55.748;13.194;2022-11-23T02:00:38;46.20;;;24.03;;
11771;SDS011;12556;55.748;13.194;2022-11-23T02:03:06;43.57;;;23.87;;
11771;SDS011;12556;55.748;13.194;2022-11-23T02:05:35;39.07;;;24.23;;
11771;SDS011;12556;55.748;13.194;2022-11-23T02:08:06;43.00;;;24.87;;
11771;SDS011;12556;55.748;13.194;2022-11-23T02:10:34;38.77;;;23.50;;
11771;SDS011;12556;55.748;13.194;2022-11-23T02:13:02;39.63;;;23.33;;
11771;SDS011;12556;55.748;13.194;2022-11-23T02:15:32;42.77;;;23.73;;
11771;SDS011;12556;55.748;13.194;2022-11-23T02:17:59;42.00;;;25.20;;
11771;SDS011;12556;55.748;13.194;2022-11-23T02:20:30;47.63;;;23.77;;
11771;SDS011;12556;55.748;13.194;2022-11-23T02:23:00;42.07;;;23.73;;
11771;SDS011;12556;55.748;13.194;2022-11-23T02:25:37;42.97;;;23.23;;
11771;SDS011;12556;55.748;13.194;2022-11-23T02:28:12;40.20;;;22.83;;
11771;SDS011;12556;55.748;13.194;2022-11-23T02:30:41;44.40;;;24.23;;
11771;SDS011;12556;55.748;13.194;2022-11-23T02:33:10;39.47;;;22.97;;
11771;SDS011;12556;55.748;13.194;2022-11-23T02:35:45;35.10;;;20.80;;
11771;SDS011;12556;55.748;13.194;2022-11-23T02:38:13;42.07;;;23.40;;
11771;SDS011;12556;55.748;13.194;2022-11-23T02:40:41;43.13;;;23.50;;
11771;SDS011;12556;55.748;13.194;2022-11-23T02:43:08;38.93;;;23.50;;
11771;SDS011;12556;55.748;13.194;2022-11-23T02:45:37;41.67;;;23.27;;
11771;SDS011;12556;55.748;13.194;2022-11-23T02:48:08;40.87;;;22.93;;
11771;SDS011;12556;55.748;13.194;2022-11-23T02:50:35;40.00;;;22.73;;
11771;SDS011;12556;55.748;13.194;2022-11-23T02:53:01;40.47;;;21.63;;
11771;SDS011;12556;55.748;13.194;2022-11-23T02:55:28;37.93;;;21.37;;
11771;SDS011;12556;55.748;13.194;2022-11-23T02:57:55;39.27;;;21.00;;
11771;SDS011;12556;55.748;13.194;2022-11-23T03:00:22;39.03;;;21.37;;
11771;SDS011;12556;55.748;13.194;2022-11-23T03:02:50;37.53;;;22.13;;
11771;SDS011;12556;55.748;13.194;2022-11-23T03:05:17;38.53;;;21.93;;
11771;SDS011;12556;55.748;13.194;2022-11-23T03:07:45;39.93;;;21.97;;
11771;SDS011;12556;55.748;13.194;2022-11-23T03:10:12;41.67;;;21.90;;
11771;SDS011;12556;55.748;13.194;2022-11-23T03:12:38;34.20;;;21.27;;
11771;SDS011;12556;55.748;13.194;2022-11-23T03:15:05;41.30;;;22.83;;
11771;SDS011;12556;55.748;13.194;2022-11-23T03:17:33;38.17;;;20.97;;
11771;SDS011;12556;55.748;13.194;2022-11-23T03:20:02;39.37;;;21.93;;
11771;SDS011;12556;55.748;13.194;2022-11-23T03:22:30;35.27;;;21.17;;
11771;SDS011;12556;55.748;13.194;2022-11-23T03:24:56;37.60;;;21.07;;
11771;SDS011;12556;55.748;13.194;2022-11-23T03:27:23;34.53;;;21.30;;
11771;SDS011;12556;55.748;13.194;2022-11-23T03:29:50;37.17;;;21.63;;
11771;SDS011;12556;55.748;13.194;2022-11-23T03:32:17;38.73;;;22.57;;
11771;SDS011;12556;55.748;13.194;2022-11-23T03:34:44;35.93;;;20.20;;
11771;SDS011;12556;55.748;13.194;2022-11-23T03:37:12;40.60;;;21.70;;
11771;SDS011;12556;55.748;13.194;2022-11-23T03:39:39;36.97;;;21.43;;
11771;SDS011;12556;55.748;13.194;2022-11-23T03:42:06;32.23;;;20.03;;
11771;SDS011;12556;55.748;13.194;2022-11-23T03:44:32;37.07;;;21.80;;
11771;SDS011;12556;55.748;13.194;2022-11-23T03:46:59;40.60;;;21.83;;
11771;SDS011;12556;55.748;13.194;2022-11-23T03:49:26;36.93;;;21.53;;
11771;SDS011;12556;55.748;13.194;2022-11-23T03:51:53;37.30;;;22.07;;
11771;SDS011;12556;55.748;13.194;2022-11-23T03:54:21;38.07;;;23.03;;
11771;SDS011;12556;55.748;13.194;2022-11-23T03:56:48;35.80;;;22.20;;
11771;SDS011;12556;55.748;13.194;2022-11-23T03:59:15;40.37;;;23.10;;
11771;SDS011;12556;55.748;13.194;2022-11-23T04:01:41;38.53;;;22.70;;
11771;SDS011;12556;55.748;13.194;2022-11-23T04:04:08;37.80;;;22.57;;
11771;SDS011;12556;55.748;13.194;2022-11-23T04:06:35;36.90;;;21.07;;
11771;SDS011;12556;55.748;13.194;2022-11-23T04:09:02;42.63;;;22.77;;
11771;SDS011;12556;55.748;13.194;2022-11-23T04:11:30;38.13;;;22.87;;
11771;SDS011;12556;55.748;13.194;2022-11-23T04:13:57;39.77;;;23.47;;
11771;SDS011;12556;55.748;13.194;2022-11-23T04:16:24;37.97;;;21.43;;
11771;SDS011;12556;55.748;13.194;2022-11-23T04:18:51;39.60;;;22.70;;
11771;SDS011;12556;55.748;13.194;2022-11-23T04:21:18;40.07;;;21.17;;
11771;SDS011;12556;55.748;13.194;2022-11-23T04:23:44;37.30;;;23.40;;
11771;SDS011;12556;55.748;13.194;2022-11-23T04:26:11;39.73;;;21.90;;
11771;SDS011;12556;55.748;13.194;2022-11-23T04:28:39;39.00;;;22.33;;
11771;SDS011;12556;55.748;13.194;2022-11-23T04:31:06;42.20;;;23.10;;
11771;SDS011;12556;55.748;13.194;2022-11-23T04:33:33;37.93;;;21.07;;
11771;SDS011;12556;55.748;13.194;2022-11-23T04:36:00;41.07;;;23.17;;
11771;SDS011;12556;55.748;13.194;2022-11-23T04:38:27;40.33;;;22.27;;
11771;SDS011;12556;55.748;13.194;2022-11-23T04:40:54;40.10;;;23.87;;
11771;SDS011;12556;55.748;13.194;2022-11-23T04:43:21;36.77;;;21.23;;
11771;SDS011;12556;55.748;13.194;2022-11-23T04:45:49;41.60;;;21.70;;
11771;SDS011;12556;55.748;13.194;2022-11-23T04:48:16;38.90;;;22.50;;
11771;SDS011;12556;55.748;13.194;2022-11-23T04:50:43;36.47;;;21.37;;
11771;SDS011;12556;55.748;13.194;2022-11-23T04:53:10;38.97;;;22.67;;
11771;SDS011;12556;55.748;13.194;2022-11-23T04:55:36;34.70;;;19.47;;
11771;SDS011;12556;55.748;13.194;2022-11-23T04:58:03;37.77;;;22.43;;
11771;SDS011;12556;55.748;13.194;2022-11-23T05:00:30;39.87;;;22.50;;
11771;SDS011;12556;55.748;13.194;2022-11-23T05:02:59;37.57;;;22.90;;
11771;SDS011;12556;55.748;13.194;2022-11-23T05:05:26;38.27;;;22.20;;
11771;SDS011;12556;55.748;13.194;2022-11-23T05:07:53;43.03;;;22.40;;
11771;SDS011;12556;55.748;13.194;2022-11-23T05:10:20;35.90;;;21.73;;
11771;SDS011;12556;55.748;13.194;2022-11-23T05:12:47;36.37;;;22.37;;
11771;SDS011;12556;55.748;13.194;2022-11-23T05:15:13;38.10;;;22.40;;
11771;SDS011;12556;55.748;13.194;2022-11-23T05:17:40;39.43;;;22.97;;
11771;SDS011;12556;55.748;13.194;2022-11-23T05:20:10;36.50;;;20.97;;
11771;SDS011;12556;55.748;13.194;2022-11-23T05:22:37;39.97;;;20.73;;
11771;SDS011;12556;55.748;13.194;2022-11-23T05:25:04;33.07;;;20.87;;
11771;SDS011;12556;55.748;13.194;2022-11-23T05:27:31;31.33;;;20.60;;
11771;SDS011;12556;55.748;13.194;2022-11-23T05:29:58;34.37;;;21.67;;
11771;SDS011;12556;55.748;13.194;2022-11-23T05:32:25;39.40;;;22.83;;
11771;SDS011;12556;55.748;13.194;2022-11-23T05:34:52;38.63;;;21.13;;
11771;SDS011;12556;55.748;13.194;2022-11-23T05:37:20;38.67;;;22.10;;
11771;SDS011;12556;55.748;13.194;2022-11-23T05:39:47;40.87;;;22.53;;
11771;SDS011;12556;55.748;13.194;2022-11-23T05:42:14;36.37;;;21.90;;
11771;SDS011;12556;55.748;13.194;2022-11-23T05:44:41;38.60;;;22.70;;
11771;SDS011;12556;55.748;13.194;2022-11-23T05:47:08;39.63;;;23.27;;
11771;SDS011;12556;55.748;13.194;2022-11-23T05:49:35;45.87;;;23.87;;
11771;SDS011;12556;55.748;13.194;2022-11-23T05:52:02;38.43;;;22.97;;
11771;SDS011;12556;55.748;13.194;2022-11-23T05:54:30;40.90;;;24.80;;
11771;SDS011;12556;55.748;13.194;2022-11-23T05:56:57;41.40;;;25.17;;
11771;SDS011;12556;55.748;13.194;2022-11-23T05:59:24;39.47;;;23.60;;
11771;SDS011;12556;55.748;13.194;2022-11-23T06:01:50;42.73;;;24.33;;
11771;SDS011;12556;55.748;13.194;2022-11-23T06:04:18;41.57;;;24.47;;
11771;SDS011;12556;55.748;13.194;2022-11-23T06:06:44;41.77;;;23.50;;
11771;SDS011;12556;55.748;13.194;2022-11-23T06:09:11;39.63;;;23.00;;
11771;SDS011;12556;55.748;13.194;2022-11-23T06:11:40;37.70;;;22.17;;
11771;SDS011;12556;55.748;13.194;2022-11-23T06:14:08;38.03;;;23.63;;
11771;SDS011;12556;55.748;13.194;2022-11-23T06:16:35;41.80;;;24.13;;
11771;SDS011;12556;55.748;13.194;2022-11-23T06:19:02;38.20;;;23.30;;
11771;SDS011;12556;55.748;13.194;2022-11-23T06:21:29;38.77;;;23.20;;
11771;SDS011;12556;55.748;13.194;2022-11-23T06:23:56;39.93;;;23.47;;
11771;SDS011;12556;55.748;13.194;2022-11-23T06:26:23;38.50;;;23.67;;
11771;SDS011;12556;55.748;13.194;2022-11-23T06:28:52;40.07;;;23.07;;
11771;SDS011;12556;55.748;13.194;2022-11-23T06:31:19;40.77;;;23.67;;
11771;SDS011;12556;55.748;13.194;2022-11-23T06:33:46;42.97;;;24.10;;
11771;SDS011;12556;55.748;13.194;2022-11-23T06:36:13;43.50;;;26.43;;
11771;SDS011;12556;55.748;13.194;2022-11-23T06:38:40;40.03;;;22.63;;
11771;SDS011;12556;55.748;13.194;2022-11-23T06:41:07;44.20;;;23.83;;
11771;SDS011;12556;55.748;13.194;2022-11-23T06:43:34;40.50;;;23.23;;
11771;SDS011;12556;55.748;13.194;2022-11-23T06:46:03;48.50;;;25.90;;
11771;SDS011;12556;55.748;13.194;2022-11-23T06:48:31;43.63;;;24.50;;
11771;SDS011;12556;55.748;13.194;2022-11-23T06:50:58;44.23;;;25.00;;
11771;SDS011;12556;55.748;13.194;2022-11-23T06:53:26;43.87;;;26.10;;
11771;SDS011;12556;55.748;13.194;2022-11-23T06:55:56;42.13;;;24.53;;
11771;SDS011;12556;55.748;13.194;2022-11-23T06:58:23;50.20;;;25.63;;
11771;SDS011;12556;55.748;13.194;2022-11-23T07:00:50;41.40;;;25.13;;
11771;SDS011;12556;55.748;13.194;2022-11-23T07:03:19;45.07;;;24.33;;
11771;SDS011;12556;55.748;13.194;2022-11-23T07:05:47;45.23;;;25.80;;
11771;SDS011;12556;55.748;13.194;2022-11-23T07:08:13;45.43;;;24.20;;
11771;SDS011;12556;55.748;13.194;2022-11-23T07:10:40;41.63;;;25.00;;
11771;SDS011;12556;55.748;13.194;2022-11-23T07:13:08;40.83;;;25.03;;
11771;SDS011;12556;55.748;13.194;2022-11-23T07:15:35;43.60;;;25.93;;
11771;SDS011;12556;55.748;13.194;2022-11-23T07:18:03;38.40;;;24.90;;
11771;SDS011;12556;55.748;13.194;2022-11-23T07:20:32;43.07;;;25.20;;
11771;SDS011;12556;55.748;13.194;2022-11-23T07:22:59;40.57;;;24.90;;
11771;SDS011;12556;55.748;13.194;2022-11-23T07:25:26;36.77;;;23.43;;
11771;SDS011;12556;55.748;13.194;2022-11-23T07:27:54;40.13;;;24.97;;
11771;SDS011;12556;55.748;13.194;2022-11-23T07:30:21;42.53;;;24.97;;
11771;SDS011;12556;55.748;13.194;2022-11-23T07:32:49;44.50;;;27.13;;
11771;SDS011;12556;55.748;13.194;2022-11-23T07:35:16;53.63;;;34.38;;
11771;SDS011;12556;55.748;13.194;2022-11-23T07:37:44;48.77;;;29.30;;
11771;SDS011;12556;55.748;13.194;2022-11-23T07:40:11;44.03;;;28.20;;
11771;SDS011;12556;55.748;13.194;2022-11-23T07:42:39;45.57;;;26.37;;
11771;SDS011;12556;55.748;13.194;2022-11-23T07:45:06;43.67;;;26.57;;
11771;SDS011;12556;55.748;13.194;2022-11-23T07:47:34;45.67;;;25.30;;
11771;SDS011;12556;55.748;13.194;2022-11-23T07:50:01;41.83;;;24.87;;
11771;SDS011;12556;55.748;13.194;2022-11-23T07:52:28;44.60;;;26.27;;
11771;SDS011;12556;55.748;13.194;2022-11-23T07:54:56;41.83;;;25.60;;
11771;SDS011;12556;55.748;13.194;2022-11-23T07:57:24;39.83;;;26.13;;
11771;SDS011;12556;55.748;13.194;2022-11-23T07:59:51;45.83;;;28.07;;
11771;SDS011;12556;55.748;13.194;2022-11-23T08:02:18;41.20;;;25.00;;
11771;SDS011;12556;55.748;13.194;2022-11-23T08:04:45;46.13;;;26.17;;
11771;SDS011;12556;55.748;13.194;2022-11-23T08:07:12;41.60;;;25.10;;
11771;SDS011;12556;55.748;13.194;2022-11-23T08:09:39;47.20;;;25.20;;
11771;SDS011;12556;55.748;13.194;2022-11-23T08:12:07;40.67;;;25.20;;
11771;SDS011;12556;55.748;13.194;2022-11-23T08:14:34;41.73;;;26.13;;
11771;SDS011;12556;55.748;13.194;2022-11-23T08:17:01;40.33;;;24.40;;
11771;SDS011;12556;55.748;13.194;2022-11-23T08:19:27;50.50;;;31.90;;
11771;SDS011;12556;55.748;13.194;2022-11-23T08:21:54;44.73;;;26.17;;
11771;SDS011;12556;55.748;13.194;2022-11-23T08:24:21;38.10;;;24.67;;
11771;SDS011;12556;55.748;13.194;2022-11-23T08:26:48;40.93;;;24.60;;
11771;SDS011;12556;55.748;13.194;2022-11-23T08:29:16;43.90;;;25.90;;
11771;SDS011;12556;55.748;13.194;2022-11-23T08:31:43;42.30;;;24.40;;
11771;SDS011;12556;55.748;13.194;2022-11-23T08:34:10;39.43;;;23.97;;
11771;SDS011;12556;55.748;13.194;2022-11-23T08:36:37;43.93;;;23.90;;
11771;SDS011;12556;55.748;13.194;2022-11-23T08:39:04;42.17;;;24.10;;
11771;SDS011;12556;55.748;13.194;2022-11-23T08:41:32;39.77;;;23.70;;
11771;SDS011;12556;55.748;13.194;2022-11-23T08:43:59;43.57;;;24.47;;
11771;SDS011;12556;55.748;13.194;2022-11-23T08:46:27;43.37;;;24.40;;
11771;SDS011;12556;55.748;13.194;2022-11-23T08:48:54;42.43;;;23.93;;
11771;SDS011;12556;55.748;13.194;2022-11-23T08:51:20;40.57;;;24.70;;
11771;SDS011;12556;55.748;13.194;2022-11-23T08:53:47;40.87;;;24.40;;
11771;SDS011;12556;55.748;13.194;2022-11-23T08:56:15;41.10;;;23.87;;
11771;SDS011;12556;55.748;13.194;2022-11-23T08:58:42;42.13;;;25.63;;
11771;SDS011;12556;55.748;13.194;2022-11-23T09:01:10;41.33;;;25.47;;
11771;SDS011;12556;55.748;13.194;2022-11-23T09:03:40;42.10;;;24.37;;
11771;SDS011;12556;55.748;13.194;2022-11-23T09:06:07;41.70;;;24.80;;
11771;SDS011;12556;55.748;13.194;2022-11-23T09:08:35;47.60;;;27.97;;
11771;SDS011;12556;55.748;13.194;2022-11-23T09:11:03;44.03;;;24.60;;
11771;SDS011;12556;55.748;13.194;2022-11-23T09:13:33;47.23;;;26.83;;
11771;SDS011;12556;55.748;13.194;2022-11-23T09:16:02;42.20;;;25.27;;
11771;SDS011;12556;55.748;13.194;2022-11-23T09:18:30;43.37;;;26.90;;
11771;SDS011;12556;55.748;13.194;2022-11-23T09:21:01;41.93;;;26.33;;
11771;SDS011;12556;55.748;13.194;2022-11-23T09:23:29;43.90;;;24.67;;
11771;SDS011;12556;55.748;13.194;2022-11-23T09:25:58;40.03;;;24.83;;
11771;SDS011;12556;55.748;13.194;2022-11-23T09:28:25;43.17;;;26.03;;
11771;SDS011;12556;55.748;13.194;2022-11-23T09:30:53;47.30;;;26.87;;
11771;SDS011;12556;55.748;13.194;2022-11-23T09:33:20;43.57;;;26.17;;
11771;SDS011;12556;55.748;13.194;2022-11-23T09:35:46;47.37;;;27.00;;
11771;SDS011;12556;55.748;13.194;2022-11-23T09:38:22;49.07;;;25.70;;
11771;SDS011;12556;55.748;13.194;2022-11-23T09:40:50;41.83;;;26.43;;
11771;SDS011;12556;55.748;13.194;2022-11-23T09:43:32;47.03;;;27.93;;
11771;SDS011;12556;55.748;13.194;2022-11-23T09:46:09;49.13;;;27.97;;
11771;SDS011;12556;55.748;13.194;2022-11-23T09:48:45;47.50;;;27.43;;
11771;SDS011;12556;55.748;13.194;2022-11-23T09:51:25;50.03;;;27.57;;
11771;SDS011;12556;55.748;13.194;2022-11-23T09:53:54;45.10;;;25.40;;
11771;SDS011;12556;55.748;13.194;2022-11-23T09:56:25;47.83;;;27.57;;
11771;SDS011;12556;55.748;13.194;2022-11-23T09:58:54;45.47;;;27.10;;
11771;SDS011;12556;55.748;13.194;2022-11-23T10:01:23;46.57;;;28.57;;
11771;SDS011;12556;55.748;13.194;2022-11-23T10:03:51;48.43;;;27.40;;
11771;SDS011;12556;55.748;13.194;2022-11-23T10:06:19;50.17;;;28.60;;
11771;SDS011;12556;55.748;13.194;2022-11-23T10:09:14;50.73;;;28.57;;
11771;SDS011;12556;55.748;13.194;2022-11-23T10:12:00;47.83;;;27.70;;
11771;SDS011;12556;55.748;13.194;2022-11-23T10:17:46;51.80;;;30.40;;
11771;SDS011;12556;55.748;13.194;2022-11-23T10:20:36;47.23;;;28.23;;
11771;SDS011;12556;55.748;13.194;2022-11-23T10:23:14;48.57;;;27.60;;
11771;SDS011;12556;55.748;13.194;2022-11-23T10:25:48;48.47;;;26.93;;
11771;SDS011;12556;55.748;13.194;2022-11-23T10:28:17;48.13;;;27.97;;
11771;SDS011;12556;55.748;13.194;2022-11-23T10:30:46;51.17;;;28.23;;
11771;SDS011;12556;55.748;13.194;2022-11-23T10:33:20;50.57;;;28.43;;
11771;SDS011;12556;55.748;13.194;2022-11-23T10:35:53;46.93;;;27.47;;
11771;SDS011;12556;55.748;13.194;2022-11-23T10:38:21;53.53;;;28.63;;
11771;SDS011;12556;55.748;13.194;2022-11-23T10:40:55;46.07;;;26.23;;
11771;SDS011;12556;55.748;13.194;2022-11-23T10:43:27;49.90;;;28.90;;
11771;SDS011;12556;55.748;13.194;2022-11-23T10:46:21;51.03;;;29.17;;
11771;SDS011;12556;55.748;13.194;2022-11-23T10:48:51;46.83;;;27.43;;
11771;SDS011;12556;55.748;13.194;2022-11-23T10:51:20;51.47;;;30.20;;
11771;SDS011;12556;55.748;13.194;2022-11-23T10:53:54;47.03;;;27.87;;
11771;SDS011;12556;55.748;13.194;2022-11-23T10:56:26;49.83;;;27.77;;
11771;SDS011;12556;55.748;13.194;2022-11-23T10:58:53;48.37;;;27.87;;
11771;SDS011;12556;55.748;13.194;2022-11-23T11:01:21;46.17;;;27.60;;
11771;SDS011;12556;55.748;13.194;2022-11-23T11:03:49;44.97;;;28.30;;
11771;SDS011;12556;55.748;13.194;2022-11-23T11:06:21;52.97;;;30.23;;
11771;SDS011;12556;55.748;13.194;2022-11-23T11:08:50;46.53;;;26.70;;
11771;SDS011;12556;55.748;13.194;2022-11-23T11:11:23;47.33;;;26.53;;
11771;SDS011;12556;55.748;13.194;2022-11-23T11:14:01;48.93;;;29.00;;
11771;SDS011;12556;55.748;13.194;2022-11-23T11:16:30;47.83;;;27.97;;
11771;SDS011;12556;55.748;13.194;2022-11-23T11:18:58;51.27;;;28.73;;
11771;SDS011;12556;55.748;13.194;2022-11-23T11:21:28;54.53;;;30.33;;
11771;SDS011;12556;55.748;13.194;2022-11-23T11:23:58;53.90;;;30.13;;
11771;SDS011;12556;55.748;13.194;2022-11-23T11:26:27;48.63;;;28.07;;
11771;SDS011;12556;55.748;13.194;2022-11-23T11:28:56;44.87;;;27.03;;
11771;SDS011;12556;55.748;13.194;2022-11-23T11:31:29;50.37;;;27.83;;
11771;SDS011;12556;55.748;13.194;2022-11-23T11:34:06;50.77;;;27.17;;
11771;SDS011;12556;55.748;13.194;2022-11-23T11:36:42;54.43;;;28.23;;
11771;SDS011;12556;55.748;13.194;2022-11-23T11:39:14;52.40;;;28.07;;
11771;SDS011;12556;55.748;13.194;2022-11-23T11:41:47;45.70;;;26.27;;
11771;SDS011;12556;55.748;13.194;2022-11-23T11:44:18;45.57;;;26.27;;
11771;SDS011;12556;55.748;13.194;2022-11-23T11:46:50;46.90;;;26.77;;
11771;SDS011;12556;55.748;13.194;2022-11-23T11:49:22;40.70;;;25.27;;
11771;SDS011;12556;55.748;13.194;2022-11-23T11:51:52;43.97;;;25.43;;
11771;SDS011;12556;55.748;13.194;2022-11-23T11:54:24;49.00;;;28.00;;
11771;SDS011;12556;55.748;13.194;2022-11-23T11:57:01;43.17;;;27.03;;
11771;SDS011;12556;55.748;13.194;2022-11-23T11:59:31;46.60;;;27.10;;
11771;SDS011;12556;55.748;13.194;2022-11-23T12:02:19;44.33;;;26.47;;
11771;SDS011;12556;55.748;13.194;2022-11-23T12:04:52;45.90;;;26.10;;
11771;SDS011;12556;55.748;13.194;2022-11-23T12:07:28;48.07;;;27.20;;
11771;SDS011;12556;55.748;13.194;2022-11-23T12:09:59;53.23;;;27.47;;
11771;SDS011;12556;55.748;13.194;2022-11-23T12:12:35;48.77;;;26.97;;
11771;SDS011;12556;55.748;13.194;2022-11-23T12:15:02;45.40;;;26.60;;
11771;SDS011;12556;55.748;13.194;2022-11-23T12:17:44;44.47;;;25.97;;
11771;SDS011;12556;55.748;13.194;2022-11-23T12:20:22;46.47;;;26.23;;
11771;SDS011;12556;55.748;13.194;2022-11-23T12:22:58;51.03;;;27.27;;
11771;SDS011;12556;55.748;13.194;2022-11-23T12:25:35;44.27;;;26.40;;
11771;SDS011;12556;55.748;13.194;2022-11-23T12:28:14;46.53;;;27.10;;
11771;SDS011;12556;55.748;13.194;2022-11-23T12:31:04;46.23;;;27.77;;
11771;SDS011;12556;55.748;13.194;2022-11-23T12:33:48;48.07;;;26.40;;
11771;SDS011;12556;55.748;13.194;2022-11-23T12:36:44;46.10;;;26.13;;
11771;SDS011;12556;55.748;13.194;2022-11-23T12:39:30;44.10;;;25.80;;
11771;SDS011;12556;55.748;13.194;2022-11-23T12:42:19;49.17;;;25.83;;
11771;SDS011;12556;55.748;13.194;2022-11-23T12:44:57;47.87;;;27.93;;
11771;SDS011;12556;55.748;13.194;2022-11-23T12:47:40;43.03;;;24.97;;
11771;SDS011;12556;55.748;13.194;2022-11-23T12:50:19;42.73;;;27.00;;
11771;SDS011;12556;55.748;13.194;2022-11-23T12:53:01;53.03;;;28.30;;
11771;SDS011;12556;55.748;13.194;2022-11-23T12:55:36;48.03;;;28.00;;
11771;SDS011;12556;55.748;13.194;2022-11-23T12:58:10;46.30;;;27.47;;
11771;SDS011;12556;55.748;13.194;2022-11-23T13:00:44;48.20;;;26.57;;
11771;SDS011;12556;55.748;13.194;2022-11-23T13:03:32;47.40;;;26.87;;
11771;SDS011;12556;55.748;13.194;2022-11-23T13:09:18;47.07;;;27.63;;
11771;SDS011;12556;55.748;13.194;2022-11-23T13:14:59;44.83;;;27.17;;
11771;SDS011;12556;55.748;13.194;2022-11-23T13:17:45;45.80;;;27.83;;
11771;SDS011;12556;55.748;13.194;2022-11-23T13:20:27;44.63;;;25.10;;
11771;SDS011;12556;55.748;13.194;2022-11-23T13:23:06;42.73;;;26.57;;
11771;SDS011;12556;55.748;13.194;2022-11-23T13:25:35;52.60;;;27.67;;
11771;SDS011;12556;55.748;13.194;2022-11-23T13:28:02;45.17;;;27.70;;
11771;SDS011;12556;55.748;13.194;2022-11-23T13:30:31;48.33;;;26.57;;
11771;SDS011;12556;55.748;13.194;2022-11-23T13:33:00;41.13;;;25.97;;
11771;SDS011;12556;55.748;13.194;2022-11-23T13:35:53;46.43;;;25.83;;
11771;SDS011;12556;55.748;13.194;2022-11-23T13:38:26;42.40;;;26.90;;
11771;SDS011;12556;55.748;13.194;2022-11-23T13:41:02;41.40;;;25.07;;
11771;SDS011;12556;55.748;13.194;2022-11-23T13:43:30;46.33;;;27.13;;
11771;SDS011;12556;55.748;13.194;2022-11-23T13:46:10;48.17;;;27.53;;
11771;SDS011;12556;55.748;13.194;2022-11-23T13:48:46;43.10;;;26.20;;
11771;SDS011;12556;55.748;13.194;2022-11-23T13:51:21;41.70;;;25.70;;
11771;SDS011;12556;55.748;13.194;2022-11-23T13:53:50;44.87;;;26.73;;
11771;SDS011;12556;55.748;13.194;2022-11-23T13:56:23;45.00;;;27.07;;
11771;SDS011;12556;55.748;13.194;2022-11-23T13:58:55;42.63;;;26.10;;
11771;SDS011;12556;55.748;13.194;2022-11-23T14:04:47;45.43;;;27.17;;
11771;SDS011;12556;55.748;13.194;2022-11-23T14:07:15;49.73;;;26.90;;
11771;SDS011;12556;55.748;13.194;2022-11-23T14:09:47;44.37;;;24.30;;
11771;SDS011;12556;55.748;13.194;2022-11-23T14:12:19;46.83;;;26.67;;
11771;SDS011;12556;55.748;13.194;2022-11-23T14:15:00;44.80;;;26.40;;
11771;SDS011;12556;55.748;13.194;2022-11-23T14:17:42;39.70;;;23.07;;
11771;SDS011;12556;55.748;13.194;2022-11-23T14:23:27;40.53;;;24.37;;
11771;SDS011;12556;55.748;13.194;2022-11-23T14:26:15;39.80;;;24.80;;
11771;SDS011;12556;55.748;13.194;2022-11-23T14:28:54;47.37;;;25.90;;
11771;SDS011;12556;55.748;13.194;2022-11-23T14:31:34;39.20;;;23.93;;
11771;SDS011;12556;55.748;13.194;2022-11-23T14:34:13;42.70;;;24.67;;
11771;SDS011;12556;55.748;13.194;2022-11-23T14:36:51;45.40;;;24.33;;
11771;SDS011;12556;55.748;13.194;2022-11-23T14:39:29;45.83;;;24.47;;
11771;SDS011;12556;55.748;13.194;2022-11-23T14:42:08;37.20;;;23.90;;